Time;durP1;ratioP1;P1;durP2;ratioP2;P2;SDS_P1;SDS_P2;PMS_P1;PMS_P2;Temp;Humidity;BMP_temperature;BMP_pressure;BME280_temperature;BME280_humidity;BME280_pressure;Samples;Min_cycle;Max_cycle;Signal;HPM_P1;HPM_P2
2022/04/20 00:00:43;;;;;;;3.97;3.03;;;7.70;99.90;;;;;;4967624;28;20041;-70
2022/04/20 00:03:09;;;;;;;4.22;3.13;;;7.70;99.90;;;;;;4967227;28;20781;-70
2022/04/20 00:05:34;;;;;;;4.32;2.60;;;7.60;99.90;;;;;;4968629;28;20034;-69
2022/04/20 00:08:01;;;;;;;3.58;3.15;;;7.60;99.90;;;;;;4966324;28;20050;-70
2022/04/20 00:10:30;;;;;;;5.32;2.53;;;7.50;99.90;;;;;;4968858;28;20044;-70
2022/04/20 00:12:56;;;;;;;4.05;3.25;;;7.50;99.90;;;;;;4966421;28;20165;-70
2022/04/20 00:15:23;;;;;;;4.35;3.40;;;7.40;99.90;;;;;;4965932;28;20145;-70
2022/04/20 00:17:49;;;;;;;5.63;3.17;;;7.40;99.90;;;;;;4981164;28;20122;-70
2022/04/20 00:20:14;;;;;;;3.97;3.10;;;7.30;99.90;;;;;;4967537;28;20519;-70
2022/04/20 00:22:40;;;;;;;6.20;3.22;;;7.30;99.90;;;;;;4965763;28;20133;-70
2022/04/20 00:25:06;;;;;;;6.50;3.20;;;7.30;99.90;;;;;;4982481;28;20055;-70
2022/04/20 00:27:33;;;;;;;7.60;2.67;;;7.30;99.90;;;;;;4967419;28;20137;-70
2022/04/20 00:29:59;;;;;;;6.30;3.65;;;7.30;99.90;;;;;;4963984;28;20046;-70
2022/04/20 00:32:24;;;;;;;3.75;3.35;;;7.20;99.90;;;;;;4966458;28;20098;-69
2022/04/20 00:34:50;;;;;;;4.57;3.53;;;7.20;99.90;;;;;;4966104;28;20046;-70
2022/04/20 00:37:15;;;;;;;7.75;3.60;;;7.20;99.90;;;;;;4968488;28;20038;-70
2022/04/20 00:39:41;;;;;;;5.40;2.67;;;7.10;99.90;;;;;;4980132;28;20034;-70
2022/04/20 00:42:07;;;;;;;8.43;3.70;;;7.10;99.90;;;;;;4967535;28;20058;-70
2022/04/20 00:44:32;;;;;;;3.40;3.10;;;7.00;99.90;;;;;;4968754;28;20042;-69
2022/04/20 00:46:59;;;;;;;6.03;3.67;;;7.00;99.90;;;;;;4967286;28;20827;-69
2022/04/20 00:49:25;;;;;;;4.95;3.47;;;7.00;99.90;;;;;;4965599;28;20117;-69
2022/04/20 00:51:57;;;;;;;5.95;3.70;;;7.00;99.90;;;;;;4964214;28;20053;-69
2022/04/20 00:54:23;;;;;;;7.95;3.30;;;7.00;99.90;;;;;;4967205;28;20042;-69
2022/04/20 00:56:49;;;;;;;6.72;3.90;;;6.90;99.90;;;;;;4960683;28;20038;-69
2022/04/20 00:59:20;;;;;;;6.85;3.60;;;6.90;99.90;;;;;;4983415;28;20642;-69
2022/04/20 01:01:46;;;;;;;5.50;3.72;;;6.90;99.90;;;;;;4969579;28;20122;-69
2022/04/20 01:04:11;;;;;;;10.65;3.67;;;6.90;99.90;;;;;;4967786;28;20117;-69
2022/04/20 01:06:37;;;;;;;7.55;3.78;;;6.90;99.90;;;;;;4964586;28;20547;-69
2022/04/20 01:09:03;;;;;;;5.05;3.22;;;6.80;99.90;;;;;;4967717;28;20045;-69
2022/04/20 01:11:28;;;;;;;3.67;3.30;;;6.80;99.90;;;;;;4979855;28;20105;-69
2022/04/20 01:13:54;;;;;;;8.65;3.97;;;6.80;99.90;;;;;;4963744;28;20122;-69
2022/04/20 01:16:20;;;;;;;5.70;3.55;;;6.70;99.90;;;;;;4966085;28;20080;-69
2022/04/20 01:18:45;;;;;;;3.75;3.35;;;6.70;99.90;;;;;;4966987;28;20102;-69
2022/04/20 01:21:11;;;;;;;3.95;3.47;;;6.70;99.90;;;;;;4979687;28;20057;-69
2022/04/20 01:23:38;;;;;;;5.60;3.90;;;6.60;99.90;;;;;;4964516;28;20067;-69
2022/04/20 01:26:10;;;;;;;5.93;3.70;;;6.50;99.90;;;;;;4961172;28;20054;-68
2022/04/20 01:28:38;;;;;;;4.78;3.55;;;6.50;99.90;;;;;;4965959;28;20047;-69
2022/04/20 01:31:04;;;;;;;5.70;3.78;;;6.40;99.90;;;;;;4966637;28;20130;-69
2022/04/20 01:33:31;;;;;;;6.97;4.32;;;6.40;99.90;;;;;;4981507;28;20078;-69
2022/04/20 01:35:56;;;;;;;6.30;4.10;;;6.40;99.90;;;;;;4980526;28;20046;-69
2022/04/20 01:38:22;;;;;;;4.72;3.35;;;6.30;99.90;;;;;;4981306;28;20039;-68
2022/04/20 01:40:48;;;;;;;5.32;3.72;;;6.30;99.90;;;;;;4965827;28;20062;-68
2022/04/20 01:43:13;;;;;;;5.88;3.72;;;6.30;99.90;;;;;;4965431;28;20035;-68
2022/04/20 01:45:39;;;;;;;7.30;3.88;;;6.30;99.90;;;;;;4963984;28;20053;-69
2022/04/20 01:48:06;;;;;;;8.55;3.80;;;6.40;99.90;;;;;;4968654;28;20691;-69
2022/04/20 01:50:32;;;;;;;5.97;3.97;;;6.20;99.90;;;;;;4970874;28;20046;-69
2022/04/20 01:52:57;;;;;;;4.93;4.13;;;6.20;99.90;;;;;;4971645;28;20097;-69
2022/04/20 01:55:23;;;;;;;4.93;4.05;;;6.10;99.90;;;;;;4965934;28;20034;-69
2022/04/20 01:57:48;;;;;;;5.93;4.13;;;6.10;99.90;;;;;;4970575;28;20378;-69
2022/04/20 02:00:16;;;;;;;7.75;4.82;;;6.10;99.90;;;;;;4968740;28;20039;-69
2022/04/20 02:02:42;;;;;;;6.63;3.67;;;6.10;99.90;;;;;;4984213;28;20552;-69
2022/04/20 02:05:12;;;;;;;6.38;4.72;;;6.00;99.90;;;;;;4986068;28;20141;-69
2022/04/20 02:07:38;;;;;;;6.10;4.72;;;5.90;99.90;;;;;;4964889;28;20047;-69
2022/04/20 02:10:06;;;;;;;6.88;4.55;;;5.90;99.90;;;;;;4970444;28;20046;-69
2022/04/20 02:12:32;;;;;;;8.32;5.20;;;5.90;99.90;;;;;;4967411;28;20043;-69
2022/04/20 02:14:57;;;;;;;6.65;3.55;;;5.90;99.90;;;;;;4984655;28;21022;-69
2022/04/20 02:17:23;;;;;;;4.97;4.47;;;5.80;99.90;;;;;;4967541;28;20093;-68
2022/04/20 02:19:50;;;;;;;5.70;3.75;;;5.90;99.90;;;;;;4968899;28;20066;-69
2022/04/20 02:22:15;;;;;;;5.55;4.28;;;5.90;99.90;;;;;;4970416;28;20046;-69
2022/04/20 02:24:41;;;;;;;6.80;4.72;;;5.90;99.90;;;;;;4983574;28;20043;-69
2022/04/20 02:27:09;;;;;;;10.02;4.68;;;5.90;99.90;;;;;;4968498;28;20035;-69
2022/04/20 02:29:35;;;;;;;6.28;4.43;;;5.90;99.90;;;;;;4967290;28;20113;-69
2022/04/20 02:32:00;;;;;;;11.55;4.45;;;6.00;99.90;;;;;;4969179;28;20462;-69
2022/04/20 02:34:26;;;;;;;5.32;3.75;;;6.00;99.90;;;;;;4967275;28;20070;-69
2022/04/20 02:36:52;;;;;;;4.85;3.42;;;6.00;99.90;;;;;;4965648;28;20039;-69
2022/04/20 02:39:18;;;;;;;6.82;4.20;;;5.90;99.90;;;;;;4968982;28;20046;-69
2022/04/20 02:41:44;;;;;;;5.63;4.45;;;6.00;99.90;;;;;;4968547;28;20457;-69
2022/04/20 02:44:11;;;;;;;6.22;4.45;;;6.00;99.90;;;;;;4970837;28;20039;-69
2022/04/20 02:46:37;;;;;;;5.32;4.53;;;6.00;99.90;;;;;;4966382;28;20072;-69
2022/04/20 02:49:02;;;;;;;5.57;3.92;;;6.00;99.90;;;;;;4984916;28;20045;-69
2022/04/20 02:51:28;;;;;;;7.03;4.00;;;5.90;99.90;;;;;;4968316;28;20047;-69
2022/04/20 02:53:54;;;;;;;5.00;4.15;;;6.00;99.90;;;;;;4966323;28;20042;-69
2022/04/20 02:56:19;;;;;;;8.93;4.95;;;6.00;99.90;;;;;;4965630;28;20062;-69
2022/04/20 02:58:45;;;;;;;6.25;4.13;;;6.00;99.90;;;;;;4966459;28;20050;-69
2022/04/20 03:01:10;;;;;;;5.00;3.65;;;6.00;99.90;;;;;;4964130;28;21762;-69
2022/04/20 03:03:36;;;;;;;6.35;4.20;;;6.00;99.90;;;;;;4968319;28;20042;-69
2022/04/20 03:06:02;;;;;;;4.82;4.25;;;5.90;99.90;;;;;;4966757;28;20041;-68
2022/04/20 03:08:27;;;;;;;7.72;4.53;;;5.90;99.90;;;;;;4967265;28;20034;-69
2022/04/20 03:10:53;;;;;;;6.90;4.57;;;5.90;99.90;;;;;;4968303;28;20027;-69
2022/04/20 03:13:19;;;;;;;5.95;4.25;;;5.80;99.90;;;;;;4967585;28;20043;-69
2022/04/20 03:15:46;;;;;;;8.25;3.97;;;5.80;99.90;;;;;;4966425;28;20778;-69
2022/04/20 03:18:12;;;;;;;5.22;4.20;;;5.80;99.90;;;;;;4966995;28;20396;-68
2022/04/20 03:20:37;;;;;;;5.78;4.05;;;5.80;99.90;;;;;;4963208;28;20049;-69
2022/04/20 03:23:03;;;;;;;6.05;4.63;;;5.70;99.90;;;;;;4968102;28;20081;-69
2022/04/20 03:25:29;;;;;;;8.60;5.50;;;5.70;99.90;;;;;;4967867;28;20055;-69
2022/04/20 03:27:55;;;;;;;7.00;4.43;;;5.70;99.90;;;;;;4979578;28;20051;-69
2022/04/20 03:30:21;;;;;;;8.35;4.38;;;5.70;99.90;;;;;;4967235;28;20436;-69
2022/04/20 03:32:46;;;;;;;7.95;4.20;;;5.60;99.90;;;;;;4966920;28;20051;-69
2022/04/20 03:35:14;;;;;;;6.70;4.43;;;5.70;99.90;;;;;;4967236;28;20074;-69
2022/04/20 03:37:39;;;;;;;5.57;4.45;;;5.60;99.90;;;;;;4964767;28;20129;-69
2022/04/20 03:40:08;;;;;;;6.28;4.43;;;5.60;99.90;;;;;;4967928;28;20462;-69
2022/04/20 03:42:34;;;;;;;7.32;4.13;;;5.60;99.90;;;;;;4969555;28;20165;-69
2022/04/20 03:45:00;;;;;;;9.40;4.55;;;5.50;99.90;;;;;;4984405;28;20049;-68
2022/04/20 03:47:26;;;;;;;9.57;4.93;;;5.50;99.90;;;;;;4962503;28;20070;-68
2022/04/20 03:49:52;;;;;;;6.20;4.78;;;5.40;99.90;;;;;;4968009;28;20073;-68
2022/04/20 03:52:17;;;;;;;5.53;4.60;;;5.40;99.90;;;;;;4981530;28;20026;-68
2022/04/20 03:54:43;;;;;;;7.47;4.43;;;5.40;99.90;;;;;;4949955;28;20046;-68
2022/04/20 03:57:10;;;;;;;8.02;5.07;;;5.40;99.90;;;;;;4964702;28;21727;-68
2022/04/20 03:59:37;;;;;;;12.55;4.60;;;5.30;99.90;;;;;;4968514;28;20043;-69
2022/04/20 04:02:05;;;;;;;12.35;4.90;;;5.30;99.90;;;;;;4966982;28;20034;-69
2022/04/20 04:04:31;;;;;;;10.73;4.65;;;5.30;99.90;;;;;;4967504;28;20043;-69
2022/04/20 04:06:56;;;;;;;10.20;5.72;;;5.20;99.90;;;;;;4966383;28;20375;-68
2022/04/20 04:09:22;;;;;;;7.38;4.35;;;5.20;99.90;;;;;;4967462;28;20039;-69
2022/04/20 04:11:47;;;;;;;7.28;4.70;;;5.10;99.90;;;;;;4968773;28;20125;-68
2022/04/20 04:14:13;;;;;;;7.18;4.97;;;5.00;99.90;;;;;;4968318;28;20050;-69
2022/04/20 04:16:39;;;;;;;5.43;4.63;;;5.00;99.90;;;;;;4963886;28;20042;-69
2022/04/20 04:19:06;;;;;;;8.48;4.80;;;5.00;99.90;;;;;;4962048;28;20042;-68
2022/04/20 04:21:35;;;;;;;7.55;5.28;;;4.90;99.90;;;;;;4966846;28;20043;-68
2022/04/20 04:24:01;;;;;;;6.63;4.40;;;5.00;99.90;;;;;;4964859;28;20056;-68
2022/04/20 04:26:28;;;;;;;6.97;4.63;;;5.00;99.90;;;;;;4963049;28;20047;-68
2022/04/20 04:28:54;;;;;;;7.70;4.90;;;5.00;99.90;;;;;;4965502;28;20050;-68
2022/04/20 04:31:19;;;;;;;7.47;5.22;;;5.00;99.90;;;;;;4966995;28;20058;-68
2022/04/20 04:33:45;;;;;;;6.95;4.78;;;4.90;99.90;;;;;;4963199;28;20050;-68
2022/04/20 04:36:11;;;;;;;8.40;4.55;;;4.90;99.90;;;;;;4962598;28;20625;-68
2022/04/20 04:38:37;;;;;;;6.28;4.20;;;4.90;99.90;;;;;;4963309;28;20045;-68
2022/04/20 04:41:03;;;;;;;10.13;4.78;;;4.90;99.90;;;;;;4980081;28;20054;-68
2022/04/20 04:43:28;;;;;;;7.65;4.78;;;4.90;99.90;;;;;;4965724;28;20034;-68
2022/04/20 04:48:42;;;;;;;5.30;4.10;;;5.00;99.90;;;;;;4965245;28;20051;-68
2022/04/20 04:51:09;;;;;;;5.45;4.15;;;5.10;99.90;;;;;;4967076;28;20121;-68
2022/04/20 04:53:36;;;;;;;8.75;4.68;;;5.20;99.90;;;;;;4966008;28;20050;-68
2022/04/20 04:56:01;;;;;;;7.10;4.60;;;5.20;99.90;;;;;;4966310;28;20174;-68
2022/04/20 04:58:27;;;;;;;9.68;4.45;;;5.30;99.90;;;;;;4966768;28;20118;-68
2022/04/20 05:00:53;;;;;;;5.10;3.90;;;5.40;99.90;;;;;;4964508;28;20049;-68
2022/04/20 05:03:19;;;;;;;4.38;3.42;;;5.80;99.90;;;;;;4963081;28;20465;-68
2022/04/20 05:05:48;;;;;;;5.63;3.45;;;6.50;99.90;;;;;;4981105;28;20046;-68
2022/04/20 05:08:13;;;;;;;9.25;4.15;;;7.30;99.90;;;;;;4964774;28;20109;-68
2022/04/20 05:10:39;;;;;;;5.50;3.50;;;8.20;99.90;;;;;;4964380;28;20039;-68
2022/04/20 05:13:06;;;;;;;4.80;3.58;;;9.00;99.90;;;;;;4963685;28;20094;-68
2022/04/20 05:15:32;;;;;;;5.97;3.58;;;9.90;99.90;;;;;;4968190;28;20043;-69
2022/04/20 05:17:58;;;;;;;4.95;2.92;;;10.70;99.90;;;;;;4967129;28;20046;-69
2022/04/20 05:20:24;;;;;;;5.97;3.53;;;11.40;99.90;;;;;;4964671;28;20035;-69
2022/04/20 05:22:50;;;;;;;7.43;3.22;;;12.10;98.80;;;;;;4968139;28;20039;-69
2022/04/20 05:25:15;;;;;;;5.60;2.92;;;12.90;96.50;;;;;;4968252;28;20042;-69
2022/04/20 05:27:41;;;;;;;3.42;2.65;;;13.60;94.10;;;;;;4968347;28;20041;-69
2022/04/20 05:30:09;;;;;;;7.75;3.55;;;14.20;91.60;;;;;;4971715;28;20093;-69
2022/04/20 05:32:35;;;;;;;3.10;2.30;;;14.90;88.90;;;;;;4971901;28;20047;-69
2022/04/20 05:35:01;;;;;;;3.63;2.70;;;15.60;84.90;;;;;;4976371;28;20452;-69
2022/04/20 05:42:57;;;;;;;4.38;2.55;;;18.20;71.40;;;;;;4968944;28;20047;-69
2022/04/20 05:45:23;;;;;;;3.35;2.45;;;18.90;67.10;;;;;;4969346;28;20047;-69
2022/04/20 05:47:49;;;;;;;2.70;2.38;;;19.60;64.10;;;;;;4968980;28;20035;-69
2022/04/20 05:50:14;;;;;;;3.28;2.45;;;20.20;60.60;;;;;;4983336;28;20046;-69
2022/04/20 05:52:40;;;;;;;3.95;2.33;;;20.80;57.90;;;;;;4969749;28;20046;-69
2022/04/20 05:55:06;;;;;;;3.55;2.42;;;21.10;56.30;;;;;;4982748;28;20039;-69
2022/04/20 05:57:36;;;;;;;4.85;2.40;;;21.40;54.90;;;;;;4967355;28;20039;-70
2022/04/20 06:00:04;;;;;;;3.78;2.40;;;21.60;52.90;;;;;;4968538;28;20067;-70
2022/04/20 06:02:33;;;;;;;3.50;2.35;;;21.80;51.90;;;;;;4964436;28;20124;-70
2022/04/20 06:05:01;;;;;;;2.58;2.05;;;21.90;52.10;;;;;;4970311;28;20401;-69
2022/04/20 06:07:29;;;;;;;2.65;2.45;;;22.10;51.90;;;;;;4970391;28;20389;-70
2022/04/20 06:09:55;;;;;;;5.13;2.33;;;22.00;50.40;;;;;;4966633;28;20392;-70
2022/04/20 06:12:21;;;;;;;3.92;2.50;;;22.60;49.80;;;;;;4965705;28;20046;-70
2022/04/20 06:14:47;;;;;;;5.57;2.85;;;22.90;49.00;;;;;;4969552;28;20050;-70
2022/04/20 06:17:13;;;;;;;4.85;2.00;;;23.20;48.60;;;;;;4966302;28;20042;-70
2022/04/20 06:19:39;;;;;;;3.05;2.22;;;23.70;47.20;;;;;;4970721;28;20047;-70
2022/04/20 06:22:04;;;;;;;4.53;2.83;;;23.40;44.90;;;;;;4969947;28;20397;-69
2022/04/20 06:24:30;;;;;;;3.58;2.33;;;22.80;46.80;;;;;;4969635;28;20034;-70
2022/04/20 06:26:56;;;;;;;3.92;2.17;;;22.20;47.70;;;;;;4969014;28;20174;-70
2022/04/20 06:29:22;;;;;;;3.90;2.25;;;21.80;48.60;;;;;;4967692;28;20058;-70
2022/04/20 06:31:47;;;;;;;2.88;2.05;;;21.10;48.90;;;;;;4979476;28;20057;-70
2022/04/20 06:34:13;;;;;;;3.25;2.35;;;20.50;51.70;;;;;;4965877;28;20531;-70
2022/04/20 06:36:39;;;;;;;5.07;2.30;;;19.70;53.10;;;;;;4965753;28;20039;-70
2022/04/20 06:39:06;;;;;;;2.45;2.25;;;19.00;53.00;;;;;;4962950;28;20111;-70
2022/04/20 06:41:31;;;;;;;4.75;2.00;;;18.40;54.20;;;;;;4968530;28;21771;-69
2022/04/20 06:43:57;;;;;;;4.32;2.15;;;18.00;53.40;;;;;;4964071;28;20043;-69
2022/04/20 06:46:23;;;;;;;4.20;2.03;;;17.20;54.00;;;;;;4984103;28;20186;-69
2022/04/20 06:48:49;;;;;;;3.28;1.75;;;16.50;55.30;;;;;;4966555;28;20424;-69
2022/04/20 06:51:15;;;;;;;7.75;1.88;;;16.20;58.10;;;;;;4969997;28;20038;-70
2022/04/20 06:59:09;;;;;;;3.38;2.08;;;15.70;60.30;;;;;;4964856;28;20043;-69
2022/04/20 07:01:35;;;;;;;4.55;2.00;;;15.60;58.50;;;;;;4964268;28;20056;-69
2022/04/20 07:04:01;;;;;;;3.03;1.67;;;15.10;60.90;;;;;;4960328;28;20121;-69
2022/04/20 07:06:27;;;;;;;3.08;2.50;;;14.80;60.90;;;;;;4979435;28;20377;-69
2022/04/20 07:08:53;;;;;;;3.28;1.80;;;14.60;62.00;;;;;;4963261;28;20049;-69
2022/04/20 07:11:19;;;;;;;3.40;2.30;;;14.40;62.00;;;;;;4962131;28;20066;-69
2022/04/20 07:13:48;;;;;;;4.18;1.95;;;14.30;62.60;;;;;;4962087;28;20046;-69
2022/04/20 07:16:14;;;;;;;3.85;1.80;;;14.30;63.30;;;;;;4964619;28;20108;-69
2022/04/20 07:18:40;;;;;;;2.55;1.80;;;14.20;63.50;;;;;;4962053;28;20706;-69
2022/04/20 07:21:06;;;;;;;4.63;2.78;;;14.20;63.30;;;;;;4968631;28;20062;-70
2022/04/20 07:23:32;;;;;;;5.45;2.30;;;13.90;63.80;;;;;;4965932;28;20042;-69
2022/04/20 07:25:57;;;;;;;3.35;1.73;;;13.70;63.80;;;;;;4970264;28;20046;-70
2022/04/20 07:28:23;;;;;;;5.15;2.10;;;13.70;66.00;;;;;;4963481;28;20046;-69
2022/04/20 07:30:49;;;;;;;5.68;2.47;;;13.50;63.20;;;;;;4969411;28;20046;-69
2022/04/20 07:33:15;;;;;;;4.93;1.95;;;13.50;64.50;;;;;;4964285;28;20047;-69
2022/04/20 07:35:44;;;;;;;2.35;1.67;;;13.50;64.90;;;;;;4968418;28;20035;-69
2022/04/20 07:38:10;;;;;;;3.58;2.10;;;13.60;66.20;;;;;;4961484;28;20039;-69
2022/04/20 07:40:36;;;;;;;4.38;2.33;;;13.80;65.40;;;;;;4967869;28;20046;-69
2022/04/20 07:43:02;;;;;;;4.18;1.92;;;14.00;65.80;;;;;;4965930;28;20537;-69
2022/04/20 07:45:28;;;;;;;3.33;2.28;;;14.00;64.20;;;;;;4962746;28;20053;-69
2022/04/20 07:47:56;;;;;;;3.00;1.92;;;14.10;64.60;;;;;;4968355;28;20253;-69
2022/04/20 07:50:24;;;;;;;3.78;1.95;;;14.20;63.60;;;;;;4962831;28;20673;-69
2022/04/20 07:52:58;;;;;;;24.63;3.13;;;14.30;61.80;;;;;;4963526;28;20053;-69
2022/04/20 07:55:29;;;;;;;5.55;2.00;;;14.50;63.00;;;;;;4962063;28;20050;-69
2022/04/20 07:57:58;;;;;;;5.47;1.55;;;14.40;61.10;;;;;;4981278;28;20039;-69
2022/04/20 08:00:24;;;;;;;4.47;1.30;;;14.50;62.40;;;;;;4964644;28;20046;-68
2022/04/20 08:02:50;;;;;;;1.95;1.30;;;14.60;59.10;;;;;;4967254;28;20050;-68
2022/04/20 08:05:19;;;;;;;2.00;1.35;;;14.30;60.60;;;;;;4964041;28;20045;-69
2022/04/20 08:07:47;;;;;;;2.95;1.52;;;14.10;61.80;;;;;;4961678;28;20097;-69
2022/04/20 08:10:14;;;;;;;2.97;1.10;;;14.00;59.50;;;;;;4968009;28;20043;-68
2022/04/20 08:12:47;;;;;;;1.80;1.30;;;14.00;59.80;;;;;;4964859;28;20130;-69
2022/04/20 08:15:12;;;;;;;3.90;1.60;;;13.90;60.00;;;;;;4963476;28;20085;-68
2022/04/20 08:17:38;;;;;;;2.92;1.40;;;13.90;60.70;;;;;;4966760;28;20070;-69
2022/04/20 08:20:06;;;;;;;6.32;1.38;;;14.10;61.50;;;;;;4948602;28;20125;-69
2022/04/20 08:22:39;;;;;;;7.80;1.38;;;14.20;60.00;;;;;;4961455;28;20047;-69
2022/04/20 08:25:06;;;;;;;3.92;1.30;;;14.20;59.70;;;;;;4962574;28;20065;-69
2022/04/20 08:27:32;;;;;;;2.80;1.00;;;14.20;58.40;;;;;;4962123;28;20070;-68
2022/04/20 08:29:57;;;;;;;2.35;1.05;;;14.30;59.70;;;;;;4961454;28;20142;-69
2022/04/20 08:32:24;;;;;;;2.03;1.25;;;14.20;58.70;;;;;;4957149;28;20059;-69
2022/04/20 08:34:50;;;;;;;4.18;1.88;;;14.40;60.20;;;;;;4966304;28;20053;-69
2022/04/20 08:37:16;;;;;;;2.63;1.20;;;14.50;60.30;;;;;;4967343;28;20122;-69
2022/04/20 08:39:43;;;;;;;3.47;0.95;;;14.50;61.50;;;;;;4967198;28;20121;-68
2022/04/20 08:42:12;;;;;;;2.25;0.95;;;14.70;58.00;;;;;;4962082;28;20030;-69
2022/04/20 08:44:43;;;;;;;2.83;1.02;;;14.80;56.40;;;;;;4981787;28;20626;-68
2022/04/20 08:47:12;;;;;;;1.67;1.08;;;14.80;56.50;;;;;;4965895;28;20038;-69
2022/04/20 08:49:41;;;;;;;2.10;1.30;;;14.80;57.70;;;;;;4968637;28;20388;-69
2022/04/20 08:54:54;;;;;;;1.95;0.77;;;14.90;57.60;;;;;;4970365;28;20051;-69
2022/04/20 08:57:20;;;;;;;2.85;0.80;;;15.00;56.10;;;;;;4962204;28;20065;-69
2022/04/20 08:59:50;;;;;;;2.38;1.05;;;14.90;55.00;;;;;;4965124;28;20035;-69
2022/04/20 09:02:16;;;;;;;2.05;0.93;;;15.00;55.70;;;;;;4963641;28;20070;-69
2022/04/20 09:04:42;;;;;;;2.08;1.00;;;14.90;55.00;;;;;;4965204;28;20054;-69
2022/04/20 09:07:10;;;;;;;2.08;0.80;;;15.00;56.60;;;;;;4967271;28;20497;-69
2022/04/20 09:09:36;;;;;;;1.50;0.70;;;15.10;53.80;;;;;;4966031;28;20047;-69
2022/04/20 09:12:07;;;;;;;4.53;1.10;;;15.10;56.00;;;;;;4959578;28;20053;-68
2022/04/20 09:14:33;;;;;;;2.55;0.68;;;15.20;53.20;;;;;;4963058;28;20053;-69
2022/04/20 09:17:01;;;;;;;2.42;0.85;;;15.20;54.30;;;;;;4964006;28;20041;-69
2022/04/20 09:19:28;;;;;;;2.92;1.20;;;15.30;55.30;;;;;;4966696;28;20035;-69
2022/04/20 09:21:55;;;;;;;4.05;0.80;;;15.50;52.90;;;;;;4966777;28;20042;-69
2022/04/20 09:24:21;;;;;;;3.35;0.65;;;15.50;51.00;;;;;;4965268;28;20186;-69
2022/04/20 09:26:55;;;;;;;2.13;0.93;;;15.40;51.50;;;;;;4968173;28;20042;-69
2022/04/20 09:29:21;;;;;;;5.78;0.77;;;15.40;52.70;;;;;;4962930;28;20057;-69
2022/04/20 09:31:53;;;;;;;3.72;0.70;;;15.40;50.20;;;;;;4963407;28;20043;-69
2022/04/20 09:34:53;;;;;;;1.17;0.68;;;15.20;50.10;;;;;;4965066;28;20039;-69
2022/04/20 09:37:19;;;;;;;3.08;0.70;;;15.30;52.90;;;;;;4981745;28;20055;-69
2022/04/20 09:39:46;;;;;;;1.63;0.70;;;15.50;52.20;;;;;;4980526;28;20043;-69
2022/04/20 09:42:12;;;;;;;0.88;0.50;;;15.50;50.00;;;;;;4965671;28;20119;-69
2022/04/20 09:44:45;;;;;;;2.08;0.30;;;15.60;50.90;;;;;;4965373;28;20042;-69
2022/04/20 09:50:03;;;;;;;1.67;0.68;;;15.60;49.60;;;;;;4962948;28;20051;-69
2022/04/20 09:52:38;;;;;;;0.98;0.57;;;15.60;50.80;;;;;;4966552;28;20492;-69
2022/04/20 09:55:05;;;;;;;;;;;15.60;52.00;;;;;;4964246;28;20488;-69
2022/04/20 09:57:32;;;;;;;1.17;0.50;;;15.60;49.10;;;;;;4963813;28;19974;-69
2022/04/20 10:00:12;;;;;;;2.10;0.52;;;15.70;49.90;;;;;;4979560;28;20158;-69
2022/04/20 10:02:58;;;;;;;0.55;0.30;;;15.80;48.80;;;;;;4965197;28;20042;-69
2022/04/20 10:05:24;;;;;;;;;;;15.90;50.60;;;;;;4968301;28;20121;-69
2022/04/20 10:07:51;;;;;;;1.33;0.60;;;16.10;54.30;;;;;;4966331;28;19937;-69
2022/04/20 10:10:17;;;;;;;1.95;0.55;;;16.10;49.80;;;;;;4963997;28;20053;-69
2022/04/20 10:12:43;;;;;;;3.10;0.60;;;16.30;48.50;;;;;;4966852;28;20051;-69
2022/04/20 10:17:56;;;;;;;9.10;1.13;;;16.30;50.20;;;;;;4966575;28;20058;-69
2022/04/20 10:20:27;;;;;;;1.25;0.60;;;16.40;48.40;;;;;;4971084;28;20749;-69
2022/04/20 10:22:54;;;;;;;2.17;0.50;;;16.40;48.70;;;;;;4969401;28;20038;-69
2022/04/20 10:25:21;;;;;;;2.08;0.55;;;16.40;49.60;;;;;;4967789;28;20051;-70
2022/04/20 10:27:58;;;;;;;1.65;0.70;;;16.40;49.20;;;;;;4968038;28;20432;-69
2022/04/20 10:30:59;;;;;;;1.42;0.57;;;16.50;49.80;;;;;;4967839;28;20101;-70
2022/04/20 10:33:26;;;;;;;2.35;0.50;;;16.20;49.50;;;;;;4945221;28;20043;-70
2022/04/20 10:36:03;;;;;;;2.42;0.60;;;16.40;53.70;;;;;;4967317;28;20105;-70
2022/04/20 10:38:31;;;;;;;2.17;0.50;;;16.40;50.80;;;;;;4969573;28;20027;-69
2022/04/20 10:41:09;;;;;;;0.90;0.63;;;16.40;50.10;;;;;;4965484;28;20698;-69
2022/04/20 10:43:39;;;;;;;1.90;0.73;;;16.30;50.80;;;;;;4969430;28;20485;-70
2022/04/20 10:46:17;;;;;;;5.97;0.55;;;16.40;53.60;;;;;;4962968;28;20054;-70
2022/04/20 10:49:01;;;;;;;1.75;0.77;;;16.50;51.70;;;;;;4968686;28;20042;-70
2022/04/20 10:51:30;;;;;;;5.65;1.10;;;16.70;52.50;;;;;;4967439;28;20094;-68
2022/04/20 10:54:15;;;;;;;0.90;0.40;;;16.70;51.60;;;;;;4966811;28;20047;-69
2022/04/20 10:56:48;;;;;;;1.90;0.73;;;16.70;50.60;;;;;;4965367;28;20105;-69
2022/04/20 10:59:14;;;;;;;1.35;0.80;;;16.50;50.80;;;;;;4965034;28;20101;-69
2022/04/20 11:02:03;;;;;;;1.65;0.80;;;16.60;51.50;;;;;;4965717;28;20109;-69
2022/04/20 11:04:39;;;;;;;2.33;0.70;;;16.50;50.00;;;;;;4963146;28;20133;-69
2022/04/20 11:07:07;;;;;;;6.00;0.73;;;16.30;52.90;;;;;;4966720;28;20059;-69
2022/04/20 11:09:57;;;;;;;5.38;0.70;;;16.50;51.90;;;;;;4969630;28;20042;-69
2022/04/20 11:18:38;;;;;;;3.05;0.70;;;16.80;52.30;;;;;;4928785;28;20055;-69
2022/04/20 11:21:05;;;;;;;3.03;0.80;;;16.90;52.60;;;;;;4968607;28;20047;-69
2022/04/20 11:23:57;;;;;;;2.67;0.70;;;16.90;51.90;;;;;;4966737;28;20166;-69
2022/04/20 11:26:26;;;;;;;4.68;0.90;;;17.00;52.00;;;;;;4967192;28;20125;-69
2022/04/20 11:28:52;;;;;;;1.25;0.60;;;17.00;53.70;;;;;;4983381;28;20059;-69
2022/04/20 11:31:18;;;;;;;2.35;1.00;;;17.00;52.10;;;;;;4960119;28;20586;-69
2022/04/20 11:33:45;;;;;;;1.95;1.00;;;17.00;51.20;;;;;;4961335;28;20035;-69
2022/04/20 11:36:12;;;;;;;2.10;0.50;;;16.90;51.80;;;;;;4961376;28;20046;-69
2022/04/20 11:38:43;;;;;;;1.60;0.68;;;17.00;52.50;;;;;;4963836;28;20034;-70
2022/04/20 11:41:10;;;;;;;1.45;0.80;;;16.90;52.00;;;;;;4960552;28;20043;-69
2022/04/20 11:43:40;;;;;;;1.73;0.80;;;17.00;54.00;;;;;;4958880;28;20705;-69
2022/04/20 11:46:07;;;;;;;3.15;0.70;;;16.90;50.00;;;;;;4963676;28;20046;-69
2022/04/20 11:48:48;;;;;;;4.10;1.00;;;16.90;49.90;;;;;;4961427;28;20476;-69
2022/04/20 11:51:25;;;;;;;1.75;0.90;;;16.90;53.10;;;;;;4956721;28;20081;-70
2022/04/20 11:53:52;;;;;;;1.67;0.77;;;17.00;54.70;;;;;;4960911;28;20058;-70
2022/04/20 11:56:40;;;;;;;1.40;0.70;;;17.10;53.90;;;;;;4954249;28;20618;-71
2022/04/20 11:59:08;;;;;;;1.30;0.70;;;17.30;57.20;;;;;;4962638;28;20054;-70
2022/04/20 12:01:36;;;;;;;2.70;0.73;;;17.30;53.20;;;;;;4963200;28;20047;-70
2022/04/20 12:04:12;;;;;;;1.50;0.75;;;17.30;50.00;;;;;;4961336;28;20058;-70
2022/04/20 12:06:44;;;;;;;4.90;0.80;;;17.20;53.00;;;;;;4962195;28;20054;-70
2022/04/20 12:09:10;;;;;;;8.77;0.77;;;17.30;54.30;;;;;;4961369;28;20043;-70
2022/04/20 12:11:35;;;;;;;3.08;0.73;;;17.30;54.60;;;;;;4963433;28;20054;-70
2022/04/20 12:14:03;;;;;;;5.82;0.98;;;17.40;53.90;;;;;;4962938;28;20529;-70
2022/04/20 12:16:34;;;;;;;2.17;0.50;;;17.40;52.70;;;;;;4964209;28;20389;-69
2022/04/20 12:18:59;;;;;;;1.48;0.75;;;17.40;52.60;;;;;;4961933;28;20545;-70
2022/04/20 12:21:42;;;;;;;1.83;0.95;;;17.50;53.30;;;;;;4962215;28;20050;-70
2022/04/20 12:24:11;;;;;;;1.40;0.57;;;17.50;52.40;;;;;;4956604;28;20133;-70
2022/04/20 12:26:41;;;;;;;1.40;0.60;;;17.50;52.40;;;;;;4954396;28;20054;-70
2022/04/20 12:29:08;;;;;;;1.90;0.60;;;17.40;51.90;;;;;;4961119;28;20062;-70
2022/04/20 12:31:37;;;;;;;1.27;0.50;;;17.50;54.10;;;;;;4959331;28;20133;-70
2022/04/20 12:34:08;;;;;;;3.33;0.63;;;17.40;50.90;;;;;;4937935;28;20061;-70
2022/04/20 12:37:03;;;;;;;1.92;0.57;;;17.60;53.00;;;;;;4961149;28;20049;-71
2022/04/20 12:39:44;;;;;;;2.53;0.43;;;17.60;53.40;;;;;;4946172;28;20050;-70
2022/04/20 12:42:14;;;;;;;2.50;0.57;;;17.60;49.80;;;;;;4959822;28;20049;-70
2022/04/20 12:44:53;;;;;;;1.48;0.60;;;17.50;50.10;;;;;;4962782;28;20066;-70
2022/04/20 12:47:19;;;;;;;1.02;0.43;;;17.60;51.40;;;;;;4958835;28;20054;-70
2022/04/20 12:49:53;;;;;;;2.92;0.43;;;17.60;49.20;;;;;;4973046;28;20125;-70
2022/04/20 12:52:18;;;;;;;4.50;0.95;;;17.80;52.30;;;;;;4961224;28;20050;-69
2022/04/20 12:54:58;;;;;;;2.92;0.57;;;17.70;48.00;;;;;;4973968;28;20074;-70
2022/04/20 13:03:08;;;;;;;0.93;0.47;;;17.50;47.50;;;;;;4959092;28;20473;-70
2022/04/20 13:05:35;;;;;;;1.98;0.65;;;17.50;50.70;;;;;;4956111;28;20059;-69
2022/04/20 13:08:02;;;;;;;4.53;0.50;;;17.60;48.10;;;;;;4961989;28;20047;-70
2022/04/20 13:10:34;;;;;;;1.23;0.50;;;17.50;51.10;;;;;;4959665;28;20097;-70
2022/04/20 13:13:00;;;;;;;1.65;0.70;;;17.50;49.90;;;;;;4957549;28;20046;-69
2022/04/20 13:15:29;;;;;;;1.75;0.40;;;17.60;50.90;;;;;;4960183;28;20039;-70
2022/04/20 13:17:56;;;;;;;2.33;0.60;;;17.50;49.90;;;;;;4962438;28;20050;-69
2022/04/20 13:20:22;;;;;;;1.65;0.50;;;17.50;49.20;;;;;;4961599;28;20049;-70
2022/04/20 13:22:48;;;;;;;1.48;0.52;;;17.50;49.90;;;;;;4960110;28;20162;-70
2022/04/20 13:27:58;;;;;;;3.20;0.65;;;17.70;52.50;;;;;;4961756;28;20046;-70
2022/04/20 13:30:29;;;;;;;3.50;0.60;;;17.80;50.20;;;;;;4958738;28;20049;-70